Time;durP1;ratioP1;P1;durP2;ratioP2;P2;SDS_P1;SDS_P2;PMS_P1;PMS_P2;Temp;Humidity;BMP_temperature;BMP_pressure;BME280_temperature;BME280_humidity;BME280_pressure;Samples;Min_cycle;Max_cycle;Signal;HPM_P1;HPM_P2
2021/06/09 00:01:30;;;;;;;5.25;3.38;;;15.70;76.80;;;;;;5907621;40;20432;-78
2021/06/09 00:05:32;;;;;;;;;;;15.70;77.10;;;;;;5921623;40;20400;-78
2021/06/09 00:09:34;;;;;;;5.00;3.20;;;15.60;74.90;;;;;;5904933;40;19954;-77
2021/06/09 00:13:36;;;;;;;;;;;15.40;76.60;;;;;;5906384;40;20058;-79
2021/06/09 00:17:39;;;;;;;4.68;2.72;;;15.50;74.80;;;;;;5924373;40;19950;-78
2021/06/09 00:21:47;;;;;;;4.93;2.97;;;15.40;76.70;;;;;;5902579;40;20423;-78
2021/06/09 00:25:51;;;;;;;5.45;3.67;;;15.30;77.20;;;;;;5925288;40;20049;-79
2021/06/09 00:29:54;;;;;;;5.55;2.78;;;15.30;77.50;;;;;;5906974;40;20045;-78
2021/06/09 00:33:55;;;;;;;;;;;15.20;78.30;;;;;;5903010;40;20053;-79
2021/06/09 00:37:58;;;;;;;5.93;3.47;;;15.10;75.00;;;;;;5916243;40;20023;-78
2021/06/09 00:41:59;;;;;;;;;;;15.10;77.30;;;;;;5910145;40;20523;-78
2021/06/09 00:46:08;;;;;;;4.65;3.15;;;15.20;75.40;;;;;;5907798;40;19933;-78
2021/06/09 00:50:10;;;;;;;3.63;2.67;;;15.00;77.60;;;;;;5917530;40;20746;-79
2021/06/09 00:54:12;;;;;;;4.65;3.10;;;14.70;78.00;;;;;;5903317;40;20069;-80
2021/06/09 00:58:15;;;;;;;;;;;15.40;78.40;;;;;;5913658;40;20047;-79
2021/06/09 01:02:17;;;;;;;3.95;3.03;;;14.90;75.50;;;;;;5895587;40;20019;-80
2021/06/09 01:06:19;;;;;;;5.60;3.42;;;14.80;77.80;;;;;;5900777;40;20048;-79
2021/06/09 01:10:21;;;;;;;5.75;2.95;;;14.80;78.30;;;;;;5911274;40;20400;-81
2021/06/09 01:14:24;;;;;;;4.05;2.83;;;14.80;78.70;;;;;;5906075;40;20041;-79
2021/06/09 01:18:27;;;;;;;4.68;3.00;;;14.80;78.40;;;;;;5923770;40;20066;-78
2021/06/09 01:22:29;;;;;;;5.32;3.17;;;14.80;78.80;;;;;;5903186;40;20078;-80
2021/06/09 01:26:32;;;;;;;5.40;3.15;;;14.70;78.70;;;;;;5907161;40;20112;-77
2021/06/09 01:30:35;;;;;;;7.60;3.78;;;14.70;78.90;;;;;;5915601;40;21355;-81
2021/06/09 01:34:37;;;;;;;5.65;3.53;;;15.40;79.70;;;;;;5914158;40;20045;-80
2021/06/09 01:38:39;;;;;;;;;;;14.60;79.50;;;;;;5907073;40;20056;-79
2021/06/09 01:42:42;;;;;;;5.00;3.40;;;15.30;76.80;;;;;;5912287;40;20513;-78
2021/06/09 01:46:44;;;;;;;5.35;4.10;;;14.50;78.80;;;;;;5910186;40;20107;-83
2021/06/09 01:50:46;;;;;;;;;;;14.40;79.40;;;;;;5912486;40;20054;-77
2021/06/09 01:54:48;;;;;;;6.07;4.37;;;14.40;75.80;;;;;;5924218;40;20409;-82
2021/06/09 01:58:50;;;;;;;10.35;4.95;;;14.30;78.60;;;;;;5910414;40;20064;-80
2021/06/09 02:03:02;;;;;;;7.25;4.78;;;14.70;79.30;;;;;;5912022;40;20200;-81
2021/06/09 02:07:04;;;;;;;7.10;4.57;;;14.30;79.60;;;;;;5907285;40;20151;-81
2021/06/09 02:11:06;;;;;;;8.27;4.78;;;14.20;79.40;;;;;;5906341;40;20078;-80
2021/06/09 02:15:09;;;;;;;6.22;4.40;;;15.00;80.00;;;;;;5907568;40;20184;-81
2021/06/09 02:19:12;;;;;;;6.32;4.60;;;14.10;79.70;;;;;;5909910;40;20654;-79
2021/06/09 02:23:22;;;;;;;8.23;5.05;;;14.00;80.00;;;;;;5907499;40;20524;-79
2021/06/09 02:27:23;;;;;;;6.82;5.05;;;14.00;80.20;;;;;;5912966;40;20095;-83
2021/06/09 02:31:26;;;;;;;6.53;4.65;;;14.40;80.60;;;;;;5926991;40;20123;-79
2021/06/09 02:35:28;;;;;;;7.50;4.68;;;13.80;80.10;;;;;;5910260;40;20037;-79
2021/06/09 02:39:30;;;;;;;5.65;4.78;;;13.70;80.50;;;;;;5917437;40;20050;-80
2021/06/09 02:43:35;;;;;;;7.78;4.78;;;13.70;80.30;;;;;;5912720;40;20045;-80
2021/06/09 02:47:51;;;;;;;5.47;4.40;;;13.60;80.40;;;;;;5930588;40;20454;-80
2021/06/09 02:52:06;;;;;;;6.85;4.53;;;13.60;81.00;;;;;;5914413;40;20059;-79
2021/06/09 02:56:29;;;;;;;7.03;4.97;;;13.50;81.10;;;;;;5909714;40;20037;-81
2021/06/09 03:00:39;;;;;;;6.65;4.97;;;13.50;80.80;;;;;;5922038;40;20137;-80
2021/06/09 03:04:55;;;;;;;8.32;4.97;;;13.40;81.20;;;;;;5918478;40;20040;-81
2021/06/09 03:09:07;;;;;;;6.80;5.20;;;13.40;81.40;;;;;;5911808;40;20046;-81
2021/06/09 03:13:39;;;;;;;6.32;4.63;;;13.30;81.50;;;;;;5931344;40;20108;-80
2021/06/09 03:17:55;;;;;;;8.20;5.50;;;13.30;81.60;;;;;;5931437;40;20068;-83
2021/06/09 03:22:06;;;;;;;6.63;5.20;;;13.30;81.50;;;;;;5915306;40;20063;-83
2021/06/09 03:26:33;;;;;;;9.75;5.28;;;13.20;81.90;;;;;;5922184;40;20042;-83
2021/06/09 03:30:38;;;;;;;8.52;5.55;;;13.20;82.20;;;;;;5910253;40;20104;-84
2021/06/09 03:34:48;;;;;;;8.00;5.53;;;14.80;82.90;;;;;;5915382;40;20150;-83
2021/06/09 03:39:05;;;;;;;6.78;5.78;;;13.20;82.10;;;;;;5923294;40;20053;-81
2021/06/09 03:43:09;;;;;;;7.35;5.20;;;13.30;82.20;;;;;;5916521;40;20049;-82
2021/06/09 03:47:13;;;;;;;7.38;5.43;;;13.30;82.50;;;;;;5929522;40;20058;-80
2021/06/09 03:51:15;;;;;;;10.00;5.72;;;13.40;82.60;;;;;;5916471;40;20409;-82
2021/06/09 03:55:25;;;;;;;7.53;6.10;;;13.50;82.80;;;;;;5911655;40;20049;-83
2021/06/09 03:59:28;;;;;;;8.00;6.40;;;13.60;83.00;;;;;;5931747;40;20516;-81
2021/06/09 04:03:34;;;;;;;9.18;6.80;;;13.70;82.80;;;;;;5914690;40;20041;-80
2021/06/09 04:07:38;;;;;;;7.53;6.43;;;13.90;83.00;;;;;;5918596;40;20300;-81
2021/06/09 04:11:41;;;;;;;10.25;7.15;;;15.40;83.50;;;;;;5917263;40;20049;-82
2021/06/09 04:15:45;;;;;;;8.55;6.32;;;14.40;82.70;;;;;;5914252;40;20499;-80
2021/06/09 04:19:48;;;;;;;7.43;6.05;;;15.60;83.40;;;;;;5915012;40;20092;-83
2021/06/09 04:23:53;;;;;;;9.13;6.43;;;14.80;82.60;;;;;;5915222;40;20049;-80
2021/06/09 04:27:57;;;;;;;9.40;6.13;;;15.00;82.10;;;;;;5914841;40;20387;-82
2021/06/09 04:31:58;;;;;;;9.52;5.50;;;15.80;82.60;;;;;;5918216;40;20127;-81
2021/06/09 04:36:01;;;;;;;8.90;5.28;;;15.40;82.40;;;;;;5916143;40;20135;-80
2021/06/09 04:40:03;;;;;;;6.07;4.22;;;16.10;82.20;;;;;;5917464;40;20057;-79
2021/06/09 04:44:05;;;;;;;7.43;4.50;;;15.80;81.70;;;;;;5925046;40;20061;-79
2021/06/09 04:48:12;;;;;;;6.70;3.30;;;15.90;82.50;;;;;;5916058;40;20038;-81
2021/06/09 04:52:14;;;;;;;3.83;2.72;;;16.10;81.90;;;;;;5917250;40;20060;-82
2021/06/09 04:56:16;;;;;;;4.00;2.50;;;16.40;80.90;;;;;;5916044;40;20063;-79
2021/06/09 05:00:18;;;;;;;3.15;1.42;;;17.60;80.40;;;;;;5917336;40;20081;-82
2021/06/09 05:04:20;;;;;;;;;;;17.10;78.90;;;;;;5924005;40;20098;-80
2021/06/09 05:08:22;;;;;;;1.58;0.98;;;17.30;80.10;;;;;;5919111;40;19941;-81
2021/06/09 05:12:33;;;;;;;2.75;1.00;;;17.70;75.80;;;;;;5915799;40;20077;-80
2021/06/09 05:16:37;;;;;;;3.40;1.38;;;18.00;75.40;;;;;;5918153;40;20413;-81
2021/06/09 05:20:41;;;;;;;3.13;1.45;;;18.40;75.70;;;;;;5916905;40;20045;-80
2021/06/09 05:24:44;;;;;;;3.65;1.50;;;18.90;75.90;;;;;;5920417;40;20079;-80
2021/06/09 05:28:56;;;;;;;3.38;1.13;;;18.50;75.30;;;;;;5913565;40;20426;-81
2021/06/09 05:32:59;;;;;;;4.75;1.30;;;18.60;74.80;;;;;;5917248;40;20088;-79
2021/06/09 05:37:04;;;;;;;7.30;1.83;;;18.80;74.70;;;;;;5912643;40;20294;-81
2021/06/09 05:41:06;;;;;;;8.68;1.65;;;18.90;75.00;;;;;;5911947;40;20111;-80
2021/06/09 05:45:08;;;;;;;;;;;19.80;75.40;;;;;;5912247;40;20085;-80
2021/06/09 05:49:23;;;;;;;6.47;1.40;;;18.90;75.90;;;;;;5911323;40;19933;-80
2021/06/09 05:53:27;;;;;;;3.30;1.23;;;18.90;75.60;;;;;;5912392;40;20041;-80
2021/06/09 05:57:30;;;;;;;1.88;0.93;;;19.00;75.90;;;;;;5925143;40;20046;-80
2021/06/09 06:01:32;;;;;;;1.73;1.00;;;18.90;73.80;;;;;;5910561;40;20471;-80
2021/06/09 06:05:36;;;;;;;3.67;1.10;;;18.20;74.60;;;;;;5924607;40;21455;-79
2021/06/09 06:09:38;;;;;;;6.13;1.25;;;18.70;74.60;;;;;;5910597;40;20041;-79
2021/06/09 06:13:42;;;;;;;5.97;1.52;;;18.80;75.00;;;;;;5909992;40;20060;-82
2021/06/09 06:17:45;;;;;;;3.15;1.10;;;19.00;74.20;;;;;;5915168;40;20415;-81
2021/06/09 06:21:48;;;;;;;3.90;0.90;;;19.40;72.60;;;;;;5914356;40;20106;-80
2021/06/09 06:25:50;;;;;;;2.13;0.65;;;19.60;72.30;;;;;;5915873;40;20093;-79
2021/06/09 06:29:52;;;;;;;1.88;0.70;;;19.40;71.10;;;;;;5932226;40;20123;-79
2021/06/09 06:33:58;;;;;;;2.50;0.90;;;19.70;72.20;;;;;;5901795;40;20053;-80
2021/06/09 06:38:00;;;;;;;3.00;1.02;;;19.80;71.70;;;;;;5905379;40;20169;-80
2021/06/09 06:42:03;;;;;;;3.60;0.85;;;20.00;72.20;;;;;;5897033;40;20543;-79
2021/06/09 06:46:06;;;;;;;1.45;0.90;;;20.10;72.20;;;;;;5902135;40;20054;-78
2021/06/09 06:50:08;;;;;;;2.47;0.80;;;20.40;72.30;;;;;;5907624;40;20064;-79
2021/06/09 06:54:11;;;;;;;3.17;1.15;;;20.40;71.40;;;;;;5893835;40;20037;-78
2021/06/09 06:58:13;;;;;;;3.90;1.35;;;21.30;71.50;;;;;;5890556;40;20494;-78
2021/06/09 07:02:16;;;;;;;3.25;1.08;;;21.00;71.70;;;;;;5896057;40;20065;-79
2021/06/09 07:06:18;;;;;;;2.22;0.98;;;21.60;72.60;;;;;;5913037;40;20077;-78
2021/06/09 07:10:21;;;;;;;2.20;0.82;;;21.30;71.60;;;;;;5894353;40;20061;-79
2021/06/09 07:14:27;;;;;;;3.72;1.02;;;21.20;71.10;;;;;;5906583;40;20103;-79
2021/06/09 07:18:34;;;;;;;2.05;0.70;;;21.40;69.90;;;;;;5912829;40;20388;-79
2021/06/09 07:22:37;;;;;;;1.55;0.73;;;21.40;70.30;;;;;;5898121;40;20531;-78
2021/06/09 07:26:44;;;;;;;1.27;0.52;;;21.40;69.90;;;;;;5916861;40;20049;-78
2021/06/09 07:30:51;;;;;;;1.50;0.60;;;21.60;70.00;;;;;;5906525;40;20048;-78
2021/06/09 07:34:53;;;;;;;1.83;0.50;;;22.80;70.10;;;;;;5906315;40;20368;-79
2021/06/09 07:39:07;;;;;;;1.42;0.68;;;21.90;68.70;;;;;;5923149;40;20045;-77
2021/06/09 07:43:17;;;;;;;3.08;0.60;;;22.00;67.30;;;;;;5906788;40;20037;-78
2021/06/09 07:47:20;;;;;;;1.35;0.70;;;22.00;67.30;;;;;;5902972;40;20310;-77
2021/06/09 07:51:24;;;;;;;3.75;0.80;;;22.00;68.90;;;;;;5902656;40;20121;-77
2021/06/09 07:55:26;;;;;;;2.67;0.60;;;22.70;67.90;;;;;;5905667;40;20456;-78
2021/06/09 07:59:29;;;;;;;1.92;0.82;;;22.30;67.90;;;;;;5903314;40;20440;-78
2021/06/09 08:03:33;;;;;;;2.83;0.70;;;22.40;67.30;;;;;;5903145;40;20053;-79
2021/06/09 08:07:36;;;;;;;0.95;0.50;;;22.60;67.10;;;;;;5903843;40;20057;-77
2021/06/09 08:11:39;;;;;;;1.58;0.70;;;22.50;66.40;;;;;;5920215;40;20060;-78
2021/06/09 08:15:41;;;;;;;0.90;0.50;;;22.60;65.00;;;;;;5905839;40;20420;-78
2021/06/09 08:19:43;;;;;;;2.15;0.70;;;22.50;66.80;;;;;;5914517;40;20057;-78
2021/06/09 08:23:48;;;;;;;1.00;0.60;;;23.10;65.90;;;;;;5922069;40;20060;-78
2021/06/09 08:27:53;;;;;;;2.30;0.70;;;22.60;64.40;;;;;;5909605;40;20094;-78
2021/06/09 08:31:55;;;;;;;0.95;0.70;;;22.60;66.00;;;;;;5913296;40;20049;-78
2021/06/09 08:35:58;;;;;;;2.25;0.73;;;22.80;65.30;;;;;;5905367;40;20049;-78
2021/06/09 08:40:00;;;;;;;1.70;0.80;;;22.90;66.40;;;;;;5923743;40;20057;-78
2021/06/09 08:44:04;;;;;;;1.80;0.82;;;23.60;66.30;;;;;;5908132;40;20064;-78
2021/06/09 08:48:06;;;;;;;1.30;0.82;;;23.30;64.90;;;;;;5911735;40;20507;-77
2021/06/09 08:52:11;;;;;;;3.13;0.73;;;23.30;64.00;;;;;;5907214;40;20143;-80
2021/06/09 08:56:13;;;;;;;1.65;0.60;;;23.30;63.80;;;;;;5917770;40;20061;-80
2021/06/09 09:00:17;;;;;;;2.63;0.80;;;23.30;65.20;;;;;;5913160;40;20057;-78
2021/06/09 09:04:19;;;;;;;1.85;0.90;;;23.50;64.40;;;;;;5904336;40;20122;-78
2021/06/09 09:08:21;;;;;;;1.90;0.73;;;23.70;64.30;;;;;;5901142;40;20056;-78
2021/06/09 09:12:23;;;;;;;2.25;0.80;;;23.70;65.20;;;;;;5905108;40;20061;-77
2021/06/09 09:16:25;;;;;;;1.52;0.70;;;23.80;64.10;;;;;;5899045;40;20188;-78
2021/06/09 09:20:29;;;;;;;1.40;0.70;;;23.80;63.90;;;;;;5900459;40;20328;-77
2021/06/09 09:24:43;;;;;;;1.65;0.80;;;24.00;64.80;;;;;;5912162;40;20143;-78
2021/06/09 09:28:45;;;;;;;3.38;1.13;;;24.20;65.40;;;;;;5921743;40;20405;-78
2021/06/09 09:33:03;;;;;;;3.15;1.00;;;24.20;64.50;;;;;;5901746;40;20537;-78
2021/06/09 09:37:21;;;;;;;1.85;0.98;;;24.30;64.80;;;;;;5902902;40;20061;-78
2021/06/09 09:41:32;;;;;;;2.03;0.85;;;24.40;62.80;;;;;;5912106;40;20037;-78
2021/06/09 09:45:37;;;;;;;3.42;1.00;;;24.50;62.70;;;;;;5901372;40;20162;-77
2021/06/09 09:49:39;;;;;;;3.45;0.90;;;24.50;63.00;;;;;;5920538;40;20073;-78
2021/06/09 09:53:41;;;;;;;1.13;0.70;;;24.70;62.70;;;;;;5893315;40;20053;-78
2021/06/09 09:57:43;;;;;;;1.30;0.80;;;25.00;63.00;;;;;;5906746;40;20053;-78
2021/06/09 10:01:51;;;;;;;0.98;0.50;;;25.20;61.80;;;;;;5908662;40;20185;-78
2021/06/09 10:06:21;;;;;;;1.27;0.57;;;25.30;60.80;;;;;;5906846;40;20053;-78
2021/06/09 10:10:27;;;;;;;1.10;0.40;;;25.40;57.40;;;;;;5904729;40;20057;-78
2021/06/09 10:14:36;;;;;;;1.27;0.60;;;25.50;61.50;;;;;;5905648;40;20384;-78
2021/06/09 10:18:38;;;;;;;1.15;0.60;;;25.70;60.10;;;;;;5901301;40;20330;-77
2021/06/09 10:22:52;;;;;;;1.95;0.40;;;25.70;59.50;;;;;;5893457;40;20037;-78
2021/06/09 10:27:02;;;;;;;2.00;0.40;;;25.80;60.50;;;;;;5904970;40;20058;-78
2021/06/09 10:31:05;;;;;;;1.23;0.40;;;25.80;59.20;;;;;;5877568;40;20140;-79
2021/06/09 10:35:08;;;;;;;1.35;0.30;;;25.90;57.70;;;;;;5903521;40;20045;-78
2021/06/09 10:39:10;;;;;;;0.88;0.32;;;26.10;58.40;;;;;;5901374;40;20064;-78
2021/06/09 10:43:12;;;;;;;2.17;0.88;;;26.00;58.40;;;;;;5895124;40;20050;-79
2021/06/09 10:47:26;;;;;;;2.00;0.40;;;26.00;58.50;;;;;;5882476;40;20096;-78
2021/06/09 10:51:29;;;;;;;1.13;0.40;;;26.00;58.80;;;;;;5890171;40;20147;-78
2021/06/09 10:55:31;;;;;;;2.42;0.50;;;26.20;57.50;;;;;;5885037;40;20073;-78
2021/06/09 10:59:34;;;;;;;0.95;0.40;;;26.30;57.30;;;;;;5890118;40;20065;-77
2021/06/09 11:03:42;;;;;;;1.30;0.60;;;26.20;56.70;;;;;;5897583;40;20142;-77
2021/06/09 11:07:46;;;;;;;1.75;0.63;;;26.40;57.40;;;;;;5906028;40;20422;-77
2021/06/09 11:12:11;;;;;;;1.88;0.50;;;26.90;57.50;;;;;;5884139;40;20763;-78
2021/06/09 11:16:17;;;;;;;4.85;0.70;;;26.50;58.50;;;;;;5897607;40;20038;-78
2021/06/09 11:20:34;;;;;;;4.88;0.80;;;26.50;57.20;;;;;;5893623;40;20060;-78
2021/06/09 11:24:36;;;;;;;3.80;0.75;;;26.60;57.50;;;;;;5898982;40;20179;-79
2021/06/09 11:28:40;;;;;;;3.28;0.82;;;26.70;57.00;;;;;;5899150;40;20058;-77
2021/06/09 11:32:43;;;;;;;5.60;1.80;;;26.80;57.40;;;;;;5910301;40;20061;-78
2021/06/09 11:36:46;;;;;;;2.65;1.55;;;26.80;56.50;;;;;;5885890;40;20046;-78
2021/06/09 11:41:05;;;;;;;2.53;1.00;;;26.80;57.60;;;;;;5908237;40;20059;-78
2021/06/09 11:45:25;;;;;;;4.10;1.27;;;26.80;57.80;;;;;;5881610;40;20065;-78
2021/06/09 11:49:29;;;;;;;1.75;1.20;;;26.90;57.60;;;;;;5898983;40;20049;-77
2021/06/09 11:53:42;;;;;;;3.78;1.80;;;26.80;57.50;;;;;;5881282;40;20062;-77
2021/06/09 11:58:09;;;;;;;6.50;1.33;;;26.70;57.30;;;;;;5884067;40;20175;-77
2021/06/09 12:02:24;;;;;;;3.47;1.30;;;26.80;59.50;;;;;;5879940;40;20080;-77
2021/06/09 12:06:26;;;;;;;5.80;1.92;;;26.90;59.00;;;;;;5895868;40;20519;-77
2021/06/09 12:10:28;;;;;;;3.00;1.50;;;27.00;56.50;;;;;;5886058;40;20408;-77
2021/06/09 12:14:38;;;;;;;3.88;1.80;;;27.00;57.20;;;;;;5880644;40;20099;-77
2021/06/09 12:18:40;;;;;;;2.15;1.00;;;26.70;56.60;;;;;;5886813;40;20057;-77
2021/06/09 12:22:47;;;;;;;2.95;1.30;;;26.80;57.00;;;;;;5882362;40;20167;-77
2021/06/09 12:26:59;;;;;;;2.75;1.40;;;26.90;56.10;;;;;;5886632;40;20297;-76
2021/06/09 12:31:00;;;;;;;3.95;1.33;;;26.70;56.30;;;;;;5883478;40;20058;-77
2021/06/09 12:35:03;;;;;;;3.17;1.30;;;26.70;57.00;;;;;;5883517;40;20081;-77
2021/06/09 12:39:13;;;;;;;2.15;1.27;;;26.80;56.90;;;;;;5887022;40;20111;-77
2021/06/09 12:43:20;;;;;;;2.22;1.02;;;26.80;57.30;;;;;;5897440;40;20053;-77
2021/06/09 12:47:34;;;;;;;4.82;1.20;;;26.80;56.30;;;;;;5888083;40;20096;-77
2021/06/09 12:51:38;;;;;;;3.50;1.30;;;26.90;56.50;;;;;;5900367;40;20045;-78
2021/06/09 12:55:51;;;;;;;4.20;1.10;;;26.80;55.30;;;;;;5880351;40;20042;-77
2021/06/09 12:59:53;;;;;;;2.53;0.90;;;26.70;55.20;;;;;;5903108;40;20107;-78
2021/06/09 13:03:55;;;;;;;2.90;1.00;;;26.70;56.00;;;;;;5892792;40;20136;-77
2021/06/09 13:08:09;;;;;;;2.80;0.75;;;26.70;55.90;;;;;;5901649;40;20057;-77
2021/06/09 13:12:11;;;;;;;1.70;0.70;;;26.70;56.40;;;;;;5903164;40;20053;-77
2021/06/09 13:16:30;;;;;;;3.67;1.15;;;26.80;55.90;;;;;;5887904;40;20049;-77
2021/06/09 13:20:34;;;;;;;2.20;0.80;;;26.90;55.60;;;;;;5884021;40;20135;-77
2021/06/09 13:24:38;;;;;;;3.50;0.80;;;26.90;54.60;;;;;;5882290;40;20499;-77
2021/06/09 13:28:41;;;;;;;2.70;0.80;;;26.90;54.10;;;;;;5882693;40;20140;-77
2021/06/09 13:32:42;;;;;;;1.95;0.70;;;26.70;54.70;;;;;;5883044;40;20094;-77
2021/06/09 13:36:47;;;;;;;2.28;0.90;;;26.80;54.10;;;;;;5884780;40;20058;-77
2021/06/09 13:40:51;;;;;;;1.80;0.70;;;26.80;53.70;;;;;;5886362;40;20056;-77
2021/06/09 13:44:53;;;;;;;5.05;1.10;;;26.70;54.20;;;;;;5885876;40;20108;-77
2021/06/09 13:48:55;;;;;;;1.88;0.82;;;26.50;53.90;;;;;;5887053;40;20042;-77
2021/06/09 13:53:11;;;;;;;4.63;1.50;;;26.40;53.50;;;;;;5896130;40;20091;-78
2021/06/09 13:57:21;;;;;;;3.42;0.98;;;26.30;54.80;;;;;;5891662;40;20061;-78
2021/06/09 14:01:23;;;;;;;5.13;0.90;;;26.30;54.70;;;;;;5906541;40;20073;-77
2021/06/09 14:05:26;;;;;;;3.15;0.82;;;26.20;54.50;;;;;;5886349;40;20049;-78
2021/06/09 14:09:28;;;;;;;3.40;0.82;;;26.20;53.90;;;;;;5909444;40;20123;-76
2021/06/09 14:13:31;;;;;;;1.92;0.77;;;26.20;54.10;;;;;;5879938;40;20649;-77
2021/06/09 14:17:34;;;;;;;1.67;0.60;;;26.20;53.90;;;;;;5899615;40;20065;-77
2021/06/09 14:21:36;;;;;;;2.10;0.82;;;26.00;54.30;;;;;;5908049;40;20057;-76
2021/06/09 14:25:40;;;;;;;2.72;0.70;;;25.90;54.60;;;;;;5907901;40;20093;-78
2021/06/09 14:30:02;;;;;;;1.55;0.50;;;25.80;54.70;;;;;;5915173;40;20120;-76
2021/06/09 14:34:13;;;;;;;0.82;0.47;;;25.50;54.30;;;;;;5904396;40;20069;-77
2021/06/09 14:38:18;;;;;;;1.63;0.98;;;25.50;54.20;;;;;;5905144;40;20110;-77
2021/06/09 14:42:23;;;;;;;3.10;0.30;;;25.40;54.30;;;;;;5903167;40;20075;-77
2021/06/09 14:46:35;;;;;;;1.75;0.47;;;25.30;54.60;;;;;;5903175;40;20046;-77
2021/06/09 14:50:37;;;;;;;1.05;0.30;;;25.30;53.50;;;;;;5915417;40;20045;-77
2021/06/09 14:54:40;;;;;;;1.40;0.65;;;25.70;53.10;;;;;;5900512;40;20124;-77
2021/06/09 14:58:43;;;;;;;2.55;0.60;;;25.20;53.30;;;;;;5901997;40;20353;-76
2021/06/09 15:02:46;;;;;;;1.42;0.57;;;25.10;53.60;;;;;;5899624;40;20053;-78
2021/06/09 15:06:48;;;;;;;1.95;0.60;;;25.10;54.20;;;;;;5902566;40;20053;-77
2021/06/09 15:10:50;;;;;;;1.08;0.47;;;25.10;54.10;;;;;;5904737;40;20069;-77
2021/06/09 15:14:53;;;;;;;2.70;0.60;;;25.00;54.30;;;;;;5902859;40;20071;-77
2021/06/09 15:18:55;;;;;;;2.45;0.70;;;25.00;53.80;;;;;;5901309;40;20305;-76
2021/06/09 15:22:57;;;;;;;2.40;0.50;;;24.90;54.50;;;;;;5899878;40;20037;-78
2021/06/09 15:27:02;;;;;;;2.95;0.90;;;24.80;53.60;;;;;;5902748;40;20077;-78
2021/06/09 15:31:05;;;;;;;1.30;0.75;;;24.70;54.30;;;;;;5906155;40;20050;-77
2021/06/09 15:35:08;;;;;;;2.75;0.90;;;24.60;55.30;;;;;;5890170;40;20077;-77
2021/06/09 15:39:16;;;;;;;2.90;0.70;;;24.60;56.40;;;;;;5917699;40;20041;-78
2021/06/09 15:43:18;;;;;;;2.83;0.85;;;24.60;56.40;;;;;;5894992;40;20085;-77
2021/06/09 15:47:20;;;;;;;1.48;0.70;;;24.60;56.50;;;;;;5889472;40;20060;-78
2021/06/09 15:51:22;;;;;;;1.75;0.70;;;24.50;56.40;;;;;;5926631;40;20064;-78
2021/06/09 15:55:24;;;;;;;2.58;1.35;;;24.50;57.20;;;;;;5900728;40;20127;-77
2021/06/09 15:59:29;;;;;;;3.15;0.70;;;24.40;57.10;;;;;;5902220;40;20061;-77
2021/06/09 16:03:31;;;;;;;4.75;1.00;;;24.40;57.30;;;;;;5899993;40;20439;-78
2021/06/09 16:07:33;;;;;;;1.95;0.95;;;24.30;57.10;;;;;;5908408;40;20057;-78
2021/06/09 16:11:47;;;;;;;2.35;0.80;;;24.20;57.20;;;;;;5915418;40;20058;-77
2021/06/09 16:15:49;;;;;;;4.43;1.23;;;24.10;58.20;;;;;;5885859;40;20046;-78
2021/06/09 16:19:51;;;;;;;3.30;1.23;;;24.00;57.70;;;;;;5888651;40;20062;-78
2021/06/09 16:23:53;;;;;;;6.22;1.60;;;24.00;57.80;;;;;;5884459;40;20051;-78
2021/06/09 16:27:55;;;;;;;4.22;1.40;;;24.00;57.70;;;;;;5886590;40;20066;-77
2021/06/09 16:31:57;;;;;;;4.85;1.35;;;24.00;57.80;;;;;;5893617;40;20507;-77
2021/06/09 16:35:59;;;;;;;3.30;1.30;;;23.90;58.10;;;;;;5882541;40;20053;-76
2021/06/09 16:40:02;;;;;;;4.28;1.90;;;23.90;58.60;;;;;;5878459;40;20058;-77
2021/06/09 16:44:05;;;;;;;3.38;1.65;;;23.80;58.50;;;;;;5885585;40;20050;-78
2021/06/09 16:48:07;;;;;;;3.63;1.00;;;23.80;58.80;;;;;;5886481;40;20066;-77
2021/06/09 16:52:10;;;;;;;3.53;1.15;;;23.80;58.60;;;;;;5887871;40;20045;-77
2021/06/09 16:56:27;;;;;;;3.45;1.40;;;23.70;58.40;;;;;;5883080;40;20041;-78
2021/06/09 17:00:30;;;;;;;3.63;1.30;;;23.70;58.50;;;;;;5887107;40;20038;-78
2021/06/09 17:04:45;;;;;;;2.75;1.23;;;23.70;58.80;;;;;;5886881;40;20041;-78
2021/06/09 17:08:47;;;;;;;4.22;1.60;;;23.70;58.70;;;;;;5895064;40;20046;-78
2021/06/09 17:12:49;;;;;;;2.38;1.20;;;24.20;58.90;;;;;;5901284;40;20105;-78
2021/06/09 17:16:51;;;;;;;3.08;1.40;;;23.60;58.80;;;;;;5887064;40;20045;-77
2021/06/09 17:20:53;;;;;;;2.67;1.40;;;23.50;58.70;;;;;;5888213;40;20223;-77
2021/06/09 17:24:55;;;;;;;3.40;1.50;;;23.40;59.10;;;;;;5898303;40;20048;-78
2021/06/09 17:28:57;;;;;;;2.78;1.52;;;23.30;59.00;;;;;;5902146;40;20061;-77
2021/06/09 17:33:00;;;;;;;4.18;1.65;;;23.20;59.00;;;;;;5890185;40;20045;-78
2021/06/09 17:37:02;;;;;;;3.88;1.90;;;23.20;58.90;;;;;;5894040;40;20053;-77
2021/06/09 17:41:04;;;;;;;4.05;1.88;;;23.10;59.10;;;;;;5887934;40;20448;-77
2021/06/09 17:45:07;;;;;;;2.35;1.30;;;23.00;59.60;;;;;;5883237;40;20153;-78
2021/06/09 17:49:09;;;;;;;3.95;1.98;;;23.00;60.20;;;;;;5886289;40;20069;-78
2021/06/09 17:53:11;;;;;;;3.95;1.60;;;22.90;60.10;;;;;;5890189;40;20057;-78
2021/06/09 17:57:13;;;;;;;3.05;1.75;;;22.90;59.80;;;;;;5896719;40;20068;-77
2021/06/09 18:01:38;;;;;;;5.65;1.30;;;22.80;60.00;;;;;;5885852;40;20045;-77
2021/06/09 18:05:42;;;;;;;4.15;1.75;;;22.80;60.30;;;;;;5882886;40;20618;-76
2021/06/09 18:09:44;;;;;;;4.65;2.00;;;22.70;60.20;;;;;;5883300;40;20042;-77
2021/06/09 18:13:46;;;;;;;3.83;1.58;;;22.50;60.20;;;;;;5893403;40;20038;-78
2021/06/09 18:17:48;;;;;;;3.85;1.80;;;22.60;60.70;;;;;;5888686;40;20094;-78
2021/06/09 18:21:50;;;;;;;8.82;1.85;;;22.50;60.90;;;;;;5905933;40;20095;-77
2021/06/09 18:25:52;;;;;;;4.75;1.90;;;22.40;60.80;;;;;;5883541;40;20042;-77
2021/06/09 18:29:54;;;;;;;4.22;2.05;;;22.40;61.10;;;;;;5890057;40;20690;-78
2021/06/09 18:33:56;;;;;;;4.53;1.80;;;22.10;61.20;;;;;;5903494;40;20573;-77
2021/06/09 18:37:58;;;;;;;3.92;1.73;;;22.20;61.70;;;;;;5917055;40;20061;-77
2021/06/09 18:42:01;;;;;;;5.40;1.75;;;22.20;62.10;;;;;;5896129;40;20073;-78
2021/06/09 18:46:03;;;;;;;3.90;1.80;;;22.10;62.30;;;;;;5891572;40;20112;-77
2021/06/09 18:50:06;;;;;;;3.08;1.60;;;22.10;62.60;;;;;;5894848;40;20060;-77
2021/06/09 18:54:08;;;;;;;3.10;1.60;;;22.00;62.70;;;;;;5885038;40;20045;-77
2021/06/09 18:58:12;;;;;;;5.13;1.70;;;22.00;62.60;;;;;;5896156;40;20069;-77
2021/06/09 19:02:15;;;;;;;3.13;2.05;;;21.90;62.80;;;;;;5900319;40;20391;-78
2021/06/09 19:06:19;;;;;;;5.90;2.42;;;21.80;62.70;;;;;;5907377;40;20053;-77
2021/06/09 19:10:24;;;;;;;3.47;1.42;;;21.80;63.10;;;;;;5905520;40;20063;-78
2021/06/09 19:14:26;;;;;;;2.55;1.52;;;21.70;63.60;;;;;;5897877;40;20060;-79
2021/06/09 19:18:29;;;;;;;3.38;1.85;;;21.70;63.70;;;;;;5906990;40;20609;-79
2021/06/09 19:22:31;;;;;;;7.68;2.15;;;21.70;63.40;;;;;;5892271;40;20065;-77
2021/06/09 19:26:35;;;;;;;4.25;1.88;;;21.60;63.30;;;;;;5888085;40;20081;-78
2021/06/09 19:30:39;;;;;;;4.82;2.40;;;21.60;63.40;;;;;;5889816;40;20120;-78
2021/06/09 19:34:42;;;;;;;3.80;1.90;;;21.50;63.20;;;;;;5890200;40;20049;-77
2021/06/09 19:38:46;;;;;;;6.13;2.30;;;21.40;63.40;;;;;;5889504;40;20458;-78
2021/06/09 19:42:49;;;;;;;4.03;2.08;;;21.40;63.30;;;;;;5906273;40;20068;-78
2021/06/09 19:46:52;;;;;;;3.83;1.92;;;21.40;63.40;;;;;;5904143;40;20052;-79
2021/06/09 19:50:54;;;;;;;3.65;1.77;;;21.30;63.70;;;;;;5895003;40;20462;-78
2021/06/09 19:54:56;;;;;;;4.43;2.35;;;21.20;63.50;;;;;;5902900;40;20514;-79
2021/06/09 19:58:58;;;;;;;3.05;1.55;;;21.10;64.30;;;;;;5908526;40;20354;-78
2021/06/09 20:03:00;;;;;;;3.35;1.77;;;21.10;64.30;;;;;;5904831;40;20049;-78
2021/06/09 20:07:03;;;;;;;2.97;2.10;;;21.00;64.70;;;;;;5892944;40;20084;-78
2021/06/09 20:11:06;;;;;;;5.43;2.08;;;20.80;65.00;;;;;;5890544;40;20061;-78
2021/06/09 20:15:08;;;;;;;3.80;1.92;;;20.80;65.30;;;;;;5889536;40;20535;-77
2021/06/09 20:19:11;;;;;;;5.65;2.20;;;20.60;65.30;;;;;;5898108;40;20479;-78
2021/06/09 20:23:17;;;;;;;6.22;2.10;;;20.50;65.40;;;;;;5891613;40;20062;-78
2021/06/09 20:27:29;;;;;;;4.53;2.08;;;20.40;65.70;;;;;;5891080;40;20362;-79
2021/06/09 20:31:31;;;;;;;;;;;20.30;65.90;;;;;;5894096;40;20116;-77
2021/06/09 20:35:33;;;;;;;6.93;2.30;;;20.10;64.40;;;;;;5897623;40;19977;-78
2021/06/09 20:39:37;;;;;;;4.95;2.03;;;20.00;65.90;;;;;;5890203;40;20151;-77
2021/06/09 20:43:42;;;;;;;7.00;2.63;;;20.00;66.30;;;;;;5881455;40;20485;-78
2021/06/09 20:47:45;;;;;;;4.88;2.55;;;19.80;66.60;;;;;;5900540;40;20044;-79
2021/06/09 20:51:48;;;;;;;5.13;2.53;;;19.80;66.80;;;;;;5902575;40;20425;-79
2021/06/09 20:55:51;;;;;;;5.07;2.90;;;19.60;67.00;;;;;;5902505;40;20518;-80
2021/06/09 20:59:53;;;;;;;5.00;2.97;;;19.60;67.30;;;;;;5910126;40;20060;-79
2021/06/09 21:03:55;;;;;;;4.00;2.92;;;19.40;67.40;;;;;;5898269;40;20167;-78
2021/06/09 21:07:57;;;;;;;5.88;2.95;;;19.40;67.60;;;;;;5893632;40;20062;-78
2021/06/09 21:12:00;;;;;;;4.75;2.80;;;19.30;67.90;;;;;;5924330;40;20063;-79
2021/06/09 21:16:05;;;;;;;4.22;2.92;;;19.20;68.10;;;;;;5925187;40;20064;-78
2021/06/09 21:20:08;;;;;;;4.18;3.28;;;19.10;68.10;;;;;;5908551;40;20056;-79